sensor_id;sensor_type;location;lat;lon;timestamp;P1;durP1;ratioP1;P2;durP2;ratioP2
75730;SDS011;64350;47.450;19.124;2022-10-16T04:35:39;14.27;;;8.15;;
75730;SDS011;64350;47.450;19.124;2022-10-16T04:38:04;14.70;;;8.17;;
75730;SDS011;64350;47.450;19.124;2022-10-16T04:40:30;16.70;;;8.13;;
75730;SDS011;64350;47.450;19.124;2022-10-16T04:43:01;16.70;;;8.02;;
75730;SDS011;64350;47.450;19.124;2022-10-16T04:45:27;17.35;;;9.10;;
75730;SDS011;64350;47.450;19.124;2022-10-16T04:47:52;13.97;;;8.33;;
75730;SDS011;64350;47.450;19.124;2022-10-16T04:50:18;16.20;;;8.03;;
75730;SDS011;64350;47.450;19.124;2022-10-16T04:52:43;14.68;;;8.38;;
75730;SDS011;64350;47.450;19.124;2022-10-16T04:55:09;14.70;;;8.30;;
75730;SDS011;64350;47.450;19.124;2022-10-16T04:57:34;13.30;;;7.87;;
75730;SDS011;64350;47.450;19.124;2022-10-16T04:59:59;16.03;;;8.77;;
75730;SDS011;64350;47.450;19.124;2022-10-16T05:02:25;16.23;;;8.43;;
75730;SDS011;64350;47.450;19.124;2022-10-16T05:04:51;13.73;;;8.33;;
75730;SDS011;64350;47.450;19.124;2022-10-16T05:07:16;14.50;;;8.05;;
75730;SDS011;64350;47.450;19.124;2022-10-16T05:09:41;13.97;;;8.53;;
75730;SDS011;64350;47.450;19.124;2022-10-16T05:12:07;15.17;;;8.80;;
75730;SDS011;64350;47.450;19.124;2022-10-16T05:14:32;17.47;;;8.47;;
75730;SDS011;64350;47.450;19.124;2022-10-16T05:16:59;13.83;;;8.30;;
75730;SDS011;64350;47.450;19.124;2022-10-16T05:19:24;14.35;;;8.57;;
75730;SDS011;64350;47.450;19.124;2022-10-16T05:21:50;18.23;;;8.20;;
75730;SDS011;64350;47.450;19.124;2022-10-16T05:24:15;15.70;;;8.43;;
75730;SDS011;64350;47.450;19.124;2022-10-16T05:26:41;13.47;;;8.33;;
75730;SDS011;64350;47.450;19.124;2022-10-16T05:29:06;12.73;;;8.00;;
75730;SDS011;64350;47.450;19.124;2022-10-16T05:31:31;15.07;;;8.33;;
75730;SDS011;64350;47.450;19.124;2022-10-16T05:33:58;13.82;;;8.32;;
75730;SDS011;64350;47.450;19.124;2022-10-16T05:36:24;15.93;;;9.27;;
75730;SDS011;64350;47.450;19.124;2022-10-16T05:38:50;18.57;;;9.10;;
75730;SDS011;64350;47.450;19.124;2022-10-16T05:41:16;17.83;;;8.87;;
75730;SDS011;64350;47.450;19.124;2022-10-16T05:43:46;16.20;;;8.57;;
75730;SDS011;64350;47.450;19.124;2022-10-16T05:46:11;16.65;;;8.77;;
75730;SDS011;64350;47.450;19.124;2022-10-16T05:48:37;15.87;;;8.50;;
75730;SDS011;64350;47.450;19.124;2022-10-16T05:51:03;13.30;;;8.73;;
75730;SDS011;64350;47.450;19.124;2022-10-16T05:53:32;15.68;;;9.02;;
75730;SDS011;64350;47.450;19.124;2022-10-16T05:55:58;14.93;;;8.27;;
75730;SDS011;64350;47.450;19.124;2022-10-16T05:58:24;14.03;;;8.17;;
75730;SDS011;64350;47.450;19.124;2022-10-16T06:00:56;14.00;;;7.85;;
75730;SDS011;64350;47.450;19.124;2022-10-16T06:03:26;12.70;;;8.15;;
75730;SDS011;64350;47.450;19.124;2022-10-16T06:05:52;12.60;;;8.03;;
75730;SDS011;64350;47.450;19.124;2022-10-16T06:08:18;13.07;;;6.93;;
75730;SDS011;64350;47.450;19.124;2022-10-16T06:10:44;14.18;;;7.55;;
75730;SDS011;64350;47.450;19.124;2022-10-16T06:13:10;15.63;;;7.90;;
75730;SDS011;64350;47.450;19.124;2022-10-16T06:15:36;14.98;;;7.28;;
75730;SDS011;64350;47.450;19.124;2022-10-16T06:18:03;13.10;;;7.50;;
75730;SDS011;64350;47.450;19.124;2022-10-16T06:20:29;12.57;;;7.07;;
75730;SDS011;64350;47.450;19.124;2022-10-16T06:22:55;11.70;;;7.17;;
75730;SDS011;64350;47.450;19.124;2022-10-16T06:25:20;11.55;;;7.00;;
75730;SDS011;64350;47.450;19.124;2022-10-16T06:27:45;14.93;;;7.00;;
75730;SDS011;64350;47.450;19.124;2022-10-16T06:30:11;13.87;;;6.23;;
75730;SDS011;64350;47.450;19.124;2022-10-16T06:32:36;12.43;;;6.83;;
75730;SDS011;64350;47.450;19.124;2022-10-16T06:35:02;11.93;;;7.20;;
75730;SDS011;64350;47.450;19.124;2022-10-16T06:37:27;11.27;;;6.10;;
75730;SDS011;64350;47.450;19.124;2022-10-16T06:39:53;13.00;;;7.03;;
75730;SDS011;64350;47.450;19.124;2022-10-16T06:42:18;12.60;;;6.83;;
75730;SDS011;64350;47.450;19.124;2022-10-16T06:44:43;11.50;;;6.43;;
75730;SDS011;64350;47.450;19.124;2022-10-16T06:47:09;13.40;;;5.97;;
75730;SDS011;64350;47.450;19.124;2022-10-16T06:49:35;13.30;;;6.00;;
75730;SDS011;64350;47.450;19.124;2022-10-16T06:52:00;11.77;;;7.17;;
75730;SDS011;64350;47.450;19.124;2022-10-16T06:54:26;12.80;;;6.53;;
75730;SDS011;64350;47.450;19.124;2022-10-16T06:56:52;11.52;;;6.82;;
75730;SDS011;64350;47.450;19.124;2022-10-16T06:59:19;11.65;;;6.72;;
75730;SDS011;64350;47.450;19.124;2022-10-16T07:01:45;10.65;;;6.28;;
75730;SDS011;64350;47.450;19.124;2022-10-16T07:04:11;11.43;;;6.63;;
75730;SDS011;64350;47.450;19.124;2022-10-16T07:06:36;11.60;;;6.40;;
75730;SDS011;64350;47.450;19.124;2022-10-16T07:09:03;11.13;;;6.77;;
75730;SDS011;64350;47.450;19.124;2022-10-16T07:11:29;11.07;;;6.43;;
75730;SDS011;64350;47.450;19.124;2022-10-16T07:13:54;11.17;;;6.57;;
75730;SDS011;64350;47.450;19.124;2022-10-16T07:16:21;11.77;;;6.60;;
75730;SDS011;64350;47.450;19.124;2022-10-16T07:18:47;9.77;;;6.22;;
75730;SDS011;64350;47.450;19.124;2022-10-16T07:21:18;13.35;;;6.80;;
75730;SDS011;64350;47.450;19.124;2022-10-16T07:23:45;11.02;;;6.95;;
75730;SDS011;64350;47.450;19.124;2022-10-16T07:26:15;13.75;;;6.82;;
75730;SDS011;64350;47.450;19.124;2022-10-16T07:28:40;13.10;;;7.33;;
75730;SDS011;64350;47.450;19.124;2022-10-16T07:31:09;12.00;;;7.00;;
75730;SDS011;64350;47.450;19.124;2022-10-16T07:33:36;14.32;;;7.37;;
75730;SDS011;64350;47.450;19.124;2022-10-16T07:36:03;12.17;;;7.27;;
75730;SDS011;64350;47.450;19.124;2022-10-16T07:38:29;14.30;;;7.72;;
75730;SDS011;64350;47.450;19.124;2022-10-16T07:41:01;12.30;;;6.67;;
75730;SDS011;64350;47.450;19.124;2022-10-16T07:43:28;12.27;;;6.68;;
75730;SDS011;64350;47.450;19.124;2022-10-16T07:45:54;12.02;;;7.22;;
75730;SDS011;64350;47.450;19.124;2022-10-16T07:48:20;11.23;;;7.30;;
75730;SDS011;64350;47.450;19.124;2022-10-16T07:50:46;9.80;;;6.68;;
75730;SDS011;64350;47.450;19.124;2022-10-16T07:53:12;14.53;;;6.80;;
75730;SDS011;64350;47.450;19.124;2022-10-16T07:55:39;11.68;;;6.82;;
75730;SDS011;64350;47.450;19.124;2022-10-16T07:58:05;10.73;;;6.85;;
75730;SDS011;64350;47.450;19.124;2022-10-16T08:00:30;10.85;;;6.57;;
75730;SDS011;64350;47.450;19.124;2022-10-16T08:02:56;10.07;;;6.60;;
75730;SDS011;64350;47.450;19.124;2022-10-16T08:05:25;11.52;;;6.20;;
75730;SDS011;64350;47.450;19.124;2022-10-16T08:07:52;12.30;;;7.28;;
75730;SDS011;64350;47.450;19.124;2022-10-16T08:10:18;11.83;;;6.83;;
75730;SDS011;64350;47.450;19.124;2022-10-16T08:12:44;12.35;;;7.18;;
75730;SDS011;64350;47.450;19.124;2022-10-16T08:15:09;12.17;;;6.97;;
75730;SDS011;64350;47.450;19.124;2022-10-16T08:17:35;13.30;;;7.50;;
75730;SDS011;64350;47.450;19.124;2022-10-16T08:20:00;15.63;;;7.63;;
75730;SDS011;64350;47.450;19.124;2022-10-16T08:22:26;13.25;;;6.55;;
75730;SDS011;64350;47.450;19.124;2022-10-16T08:24:52;12.57;;;7.35;;
75730;SDS011;64350;47.450;19.124;2022-10-16T08:27:17;13.00;;;7.77;;
75730;SDS011;64350;47.450;19.124;2022-10-16T08:29:43;12.37;;;6.97;;
75730;SDS011;64350;47.450;19.124;2022-10-16T08:32:08;11.77;;;6.70;;
75730;SDS011;64350;47.450;19.124;2022-10-16T08:34:34;13.77;;;7.37;;
75730;SDS011;64350;47.450;19.124;2022-10-16T08:36:59;14.03;;;7.43;;
75730;SDS011;64350;47.450;19.124;2022-10-16T08:39:24;12.03;;;7.17;;
75730;SDS011;64350;47.450;19.124;2022-10-16T08:47:16;11.98;;;7.03;;
75730;SDS011;64350;47.450;19.124;2022-10-16T08:49:46;13.30;;;7.95;;
75730;SDS011;64350;47.450;19.124;2022-10-16T08:52:29;13.67;;;7.53;;
75730;SDS011;64350;47.450;19.124;2022-10-16T08:54:56;12.68;;;7.05;;
75730;SDS011;64350;47.450;19.124;2022-10-16T08:57:22;12.35;;;7.53;;
75730;SDS011;64350;47.450;19.124;2022-10-16T08:59:51;11.80;;;6.63;;
75730;SDS011;64350;47.450;19.124;2022-10-16T09:02:31;11.50;;;6.87;;
75730;SDS011;64350;47.450;19.124;2022-10-16T09:13:31;11.07;;;6.90;;
75730;SDS011;64350;47.450;19.124;2022-10-16T09:16:24;13.98;;;7.75;;
75730;SDS011;64350;47.450;19.124;2022-10-16T09:21:42;11.20;;;6.97;;
75730;SDS011;64350;47.450;19.124;2022-10-16T09:24:16;10.55;;;6.95;;
75730;SDS011;64350;47.450;19.124;2022-10-16T09:26:43;11.90;;;7.40;;
75730;SDS011;64350;47.450;19.124;2022-10-16T09:29:13;12.25;;;6.70;;
75730;SDS011;64350;47.450;19.124;2022-10-16T09:31:39;12.57;;;7.25;;
75730;SDS011;64350;47.450;19.124;2022-10-16T09:34:04;11.27;;;7.53;;
75730;SDS011;64350;47.450;19.124;2022-10-16T09:36:32;13.23;;;6.85;;
75730;SDS011;64350;47.450;19.124;2022-10-16T09:39:06;13.27;;;7.12;;
75730;SDS011;64350;47.450;19.124;2022-10-16T09:41:37;14.25;;;7.15;;
75730;SDS011;64350;47.450;19.124;2022-10-16T09:44:05;11.37;;;6.90;;
75730;SDS011;64350;47.450;19.124;2022-10-16T09:46:38;13.45;;;7.35;;
75730;SDS011;64350;47.450;19.124;2022-10-16T09:49:16;12.57;;;7.28;;
75730;SDS011;64350;47.450;19.124;2022-10-16T09:51:47;11.07;;;6.32;;
75730;SDS011;64350;47.450;19.124;2022-10-16T09:54:14;12.73;;;6.20;;
75730;SDS011;64350;47.450;19.124;2022-10-16T09:56:41;12.40;;;6.68;;
75730;SDS011;64350;47.450;19.124;2022-10-16T09:59:11;11.65;;;6.37;;
75730;SDS011;64350;47.450;19.124;2022-10-16T10:01:43;9.45;;;5.80;;
75730;SDS011;64350;47.450;19.124;2022-10-16T10:04:10;11.90;;;5.77;;
75730;SDS011;64350;47.450;19.124;2022-10-16T10:06:37;10.68;;;6.40;;
75730;SDS011;64350;47.450;19.124;2022-10-16T10:09:42;12.37;;;6.03;;
75730;SDS011;64350;47.450;19.124;2022-10-16T10:12:05;10.32;;;6.28;;
75730;SDS011;64350;47.450;19.124;2022-10-16T10:15:04;11.85;;;6.25;;
75730;SDS011;64350;47.450;19.124;2022-10-16T10:17:24;9.37;;;6.00;;
75730;SDS011;64350;47.450;19.124;2022-10-16T10:27:59;9.52;;;5.32;;
75730;SDS011;64350;47.450;19.124;2022-10-16T10:36:40;9.82;;;5.45;;
75730;SDS011;64350;47.450;19.124;2022-10-16T10:38:59;9.52;;;5.70;;
75730;SDS011;64350;47.450;19.124;2022-10-16T10:57:49;9.83;;;5.10;;
75730;SDS011;64350;47.450;19.124;2022-10-16T11:00:23;10.43;;;5.30;;
75730;SDS011;64350;47.450;19.124;2022-10-16T11:05:51;8.60;;;5.10;;
75730;SDS011;64350;47.450;19.124;2022-10-16T11:08:19;8.60;;;4.82;;
75730;SDS011;64350;47.450;19.124;2022-10-16T11:11:09;10.83;;;4.77;;
75730;SDS011;64350;47.450;19.124;2022-10-16T11:16:30;8.20;;;4.90;;
75730;SDS011;64350;47.450;19.124;2022-10-16T11:22:09;9.45;;;4.57;;
75730;SDS011;64350;47.450;19.124;2022-10-16T11:24:46;8.73;;;4.73;;
75730;SDS011;64350;47.450;19.124;2022-10-16T11:27:17;11.48;;;4.78;;
75730;SDS011;64350;47.450;19.124;2022-10-16T11:30:06;10.90;;;4.80;;
75730;SDS011;64350;47.450;19.124;2022-10-16T11:32:35;8.07;;;4.87;;
75730;SDS011;64350;47.450;19.124;2022-10-16T11:35:14;10.38;;;4.55;;
75730;SDS011;64350;47.450;19.124;2022-10-16T11:37:44;7.57;;;4.30;;
75730;SDS011;64350;47.450;19.124;2022-10-16T11:43:25;10.30;;;4.85;;
75730;SDS011;64350;47.450;19.124;2022-10-16T11:45:55;8.07;;;4.53;;
75730;SDS011;64350;47.450;19.124;2022-10-16T11:48:33;9.70;;;4.55;;
75730;SDS011;64350;47.450;19.124;2022-10-16T11:56:40;7.60;;;4.10;;
75730;SDS011;64350;47.450;19.124;2022-10-16T11:59:27;8.82;;;4.45;;
75730;SDS011;64350;47.450;19.124;2022-10-16T12:07:51;8.70;;;4.55;;
75730;SDS011;64350;47.450;19.124;2022-10-16T12:10:40;8.20;;;4.20;;
75730;SDS011;64350;47.450;19.124;2022-10-16T12:18:36;8.23;;;4.30;;
75730;SDS011;64350;47.450;19.124;2022-10-16T12:21:02;8.18;;;4.40;;
75730;SDS011;64350;47.450;19.124;2022-10-16T12:23:38;9.40;;;4.53;;
75730;SDS011;64350;47.450;19.124;2022-10-16T12:26:12;11.35;;;4.43;;
75730;SDS011;64350;47.450;19.124;2022-10-16T12:28:37;9.13;;;4.53;;
75730;SDS011;64350;47.450;19.124;2022-10-16T12:31:07;7.47;;;4.10;;
75730;SDS011;64350;47.450;19.124;2022-10-16T12:33:39;9.38;;;4.70;;
75730;SDS011;64350;47.450;19.124;2022-10-16T12:36:26;6.60;;;3.72;;
75730;SDS011;64350;47.450;19.124;2022-10-16T12:38:53;7.82;;;4.05;;
75730;SDS011;64350;47.450;19.124;2022-10-16T12:44:00;7.90;;;4.60;;
75730;SDS011;64350;47.450;19.124;2022-10-16T12:49:05;8.10;;;4.60;;
75730;SDS011;64350;47.450;19.124;2022-10-16T12:51:36;9.73;;;4.40;;
75730;SDS011;64350;47.450;19.124;2022-10-16T12:56:46;11.40;;;5.10;;
75730;SDS011;64350;47.450;19.124;2022-10-16T13:02:13;7.93;;;4.75;;
75730;SDS011;64350;47.450;19.124;2022-10-16T13:04:58;6.70;;;3.73;;
75730;SDS011;64350;47.450;19.124;2022-10-16T13:07:43;8.23;;;3.87;;
75730;SDS011;64350;47.450;19.124;2022-10-16T13:29:51;8.57;;;4.07;;
75730;SDS011;64350;47.450;19.124;2022-10-16T13:32:20;7.70;;;4.60;;
75730;SDS011;64350;47.450;19.124;2022-10-16T13:34:47;8.30;;;4.45;;
75730;SDS011;64350;47.450;19.124;2022-10-16T13:37:21;7.60;;;4.32;;
75730;SDS011;64350;47.450;19.124;2022-10-16T13:39:48;9.77;;;4.32;;
75730;SDS011;64350;47.450;19.124;2022-10-16T13:42:20;8.73;;;4.20;;
75730;SDS011;64350;47.450;19.124;2022-10-16T13:44:50;9.47;;;4.60;;
75730;SDS011;64350;47.450;19.124;2022-10-16T13:47:35;8.25;;;3.95;;
75730;SDS011;64350;47.450;19.124;2022-10-16T13:50:02;6.85;;;3.97;;
75730;SDS011;64350;47.450;19.124;2022-10-16T13:52:28;7.00;;;4.00;;
75730;SDS011;64350;47.450;19.124;2022-10-16T13:54:54;8.43;;;4.47;;
75730;SDS011;64350;47.450;19.124;2022-10-16T13:57:21;7.30;;;3.87;;
75730;SDS011;64350;47.450;19.124;2022-10-16T13:59:50;8.27;;;4.35;;
75730;SDS011;64350;47.450;19.124;2022-10-16T14:02:28;7.87;;;4.00;;
75730;SDS011;64350;47.450;19.124;2022-10-16T14:04:57;8.20;;;4.00;;
75730;SDS011;64350;47.450;19.124;2022-10-16T14:07:24;7.53;;;4.10;;
75730;SDS011;64350;47.450;19.124;2022-10-16T14:09:51;7.75;;;4.25;;
75730;SDS011;64350;47.450;19.124;2022-10-16T14:12:18;12.02;;;3.97;;
75730;SDS011;64350;47.450;19.124;2022-10-16T14:14:48;8.87;;;3.70;;
75730;SDS011;64350;47.450;19.124;2022-10-16T14:17:19;10.15;;;4.18;;
75730;SDS011;64350;47.450;19.124;2022-10-16T14:19:51;8.73;;;4.40;;
75730;SDS011;64350;47.450;19.124;2022-10-16T14:25:00;7.23;;;3.90;;
75730;SDS011;64350;47.450;19.124;2022-10-16T14:27:33;8.98;;;4.12;;
75730;SDS011;64350;47.450;19.124;2022-10-16T14:32:32;9.23;;;3.80;;
75730;SDS011;64350;47.450;19.124;2022-10-16T14:34:57;8.07;;;4.13;;
75730;SDS011;64350;47.450;19.124;2022-10-16T14:37:24;8.53;;;4.27;;
75730;SDS011;64350;47.450;19.124;2022-10-16T14:39:54;7.90;;;3.80;;
75730;SDS011;64350;47.450;19.124;2022-10-16T14:42:20;9.40;;;4.53;;
75730;SDS011;64350;47.450;19.124;2022-10-16T14:44:49;8.82;;;4.90;;
75730;SDS011;64350;47.450;19.124;2022-10-16T14:47:18;11.17;;;4.03;;
75730;SDS011;64350;47.450;19.124;2022-10-16T14:49:49;7.50;;;4.05;;
75730;SDS011;64350;47.450;19.124;2022-10-16T14:52:14;8.25;;;4.18;;
75730;SDS011;64350;47.450;19.124;2022-10-16T14:54:40;7.23;;;4.03;;
75730;SDS011;64350;47.450;19.124;2022-10-16T14:57:13;8.10;;;4.03;;
75730;SDS011;64350;47.450;19.124;2022-10-16T14:59:41;9.50;;;4.35;;
75730;SDS011;64350;47.450;19.124;2022-10-16T15:02:25;8.93;;;4.57;;
75730;SDS011;64350;47.450;19.124;2022-10-16T15:04:53;8.23;;;4.07;;
75730;SDS011;64350;47.450;19.124;2022-10-16T15:07:19;13.50;;;4.22;;
75730;SDS011;64350;47.450;19.124;2022-10-16T15:09:45;8.60;;;4.30;;
75730;SDS011;64350;47.450;19.124;2022-10-16T15:12:10;12.23;;;4.90;;
75730;SDS011;64350;47.450;19.124;2022-10-16T15:14:36;7.80;;;4.40;;
75730;SDS011;64350;47.450;19.124;2022-10-16T15:17:02;9.27;;;4.53;;
75730;SDS011;64350;47.450;19.124;2022-10-16T15:19:27;8.43;;;4.40;;
75730;SDS011;64350;47.450;19.124;2022-10-16T15:21:52;9.97;;;4.23;;
75730;SDS011;64350;47.450;19.124;2022-10-16T15:24:18;10.70;;;4.30;;
75730;SDS011;64350;47.450;19.124;2022-10-16T15:26:43;12.00;;;4.10;;
75730;SDS011;64350;47.450;19.124;2022-10-16T15:29:10;9.63;;;4.80;;
75730;SDS011;64350;47.450;19.124;2022-10-16T15:31:36;8.93;;;4.90;;
75730;SDS011;64350;47.450;19.124;2022-10-16T15:34:02;10.50;;;5.30;;
75730;SDS011;64350;47.450;19.124;2022-10-16T15:36:30;10.15;;;5.10;;
75730;SDS011;64350;47.450;19.124;2022-10-16T15:38:58;10.40;;;4.90;;
75730;SDS011;64350;47.450;19.124;2022-10-16T15:41:24;9.40;;;5.30;;
75730;SDS011;64350;47.450;19.124;2022-10-16T15:43:49;11.40;;;5.40;;
75730;SDS011;64350;47.450;19.124;2022-10-16T15:46:15;9.60;;;5.60;;
75730;SDS011;64350;47.450;19.124;2022-10-16T15:48:43;11.10;;;5.37;;
75730;SDS011;64350;47.450;19.124;2022-10-16T15:51:09;10.55;;;5.05;;
75730;SDS011;64350;47.450;19.124;2022-10-16T15:53:34;14.33;;;6.03;;
75730;SDS011;64350;47.450;19.124;2022-10-16T15:56:04;11.98;;;7.12;;
75730;SDS011;64350;47.450;19.124;2022-10-16T15:58:30;12.40;;;6.20;;
75730;SDS011;64350;47.450;19.124;2022-10-16T16:00:59;16.60;;;6.70;;
75730;SDS011;64350;47.450;19.124;2022-10-16T16:03:29;11.95;;;6.75;;
75730;SDS011;64350;47.450;19.124;2022-10-16T16:05:55;13.97;;;7.27;;
75730;SDS011;64350;47.450;19.124;2022-10-16T16:08:20;15.05;;;8.30;;
75730;SDS011;64350;47.450;19.124;2022-10-16T16:10:56;17.62;;;9.45;;
75730;SDS011;64350;47.450;19.124;2022-10-16T16:13:25;19.25;;;10.25;;
75730;SDS011;64350;47.450;19.124;2022-10-16T16:15:51;23.13;;;10.70;;
75730;SDS011;64350;47.450;19.124;2022-10-16T16:18:17;21.50;;;10.00;;
75730;SDS011;64350;47.450;19.124;2022-10-16T16:20:42;21.23;;;10.65;;
75730;SDS011;64350;47.450;19.124;2022-10-16T16:23:07;19.07;;;10.70;;
75730;SDS011;64350;47.450;19.124;2022-10-16T16:25:33;19.10;;;10.67;;
75730;SDS011;64350;47.450;19.124;2022-10-16T16:27:58;23.00;;;11.07;;
75730;SDS011;64350;47.450;19.124;2022-10-16T16:30:24;23.85;;;11.52;;
75730;SDS011;64350;47.450;19.124;2022-10-16T16:32:49;18.70;;;10.83;;
75730;SDS011;64350;47.450;19.124;2022-10-16T16:35:14;18.53;;;11.73;;
75730;SDS011;64350;47.450;19.124;2022-10-16T16:37:40;21.73;;;11.17;;
75730;SDS011;64350;47.450;19.124;2022-10-16T16:40:05;21.70;;;10.43;;
75730;SDS011;64350;47.450;19.124;2022-10-16T16:42:31;19.15;;;10.82;;
75730;SDS011;64350;47.450;19.124;2022-10-16T16:44:56;19.67;;;12.23;;
75730;SDS011;64350;47.450;19.124;2022-10-16T16:47:22;19.73;;;11.00;;
75730;SDS011;64350;47.450;19.124;2022-10-16T16:49:47;22.02;;;11.48;;
75730;SDS011;64350;47.450;19.124;2022-10-16T16:52:13;20.10;;;10.97;;
75730;SDS011;64350;47.450;19.124;2022-10-16T16:54:39;19.42;;;11.65;;
75730;SDS011;64350;47.450;19.124;2022-10-16T16:57:04;19.50;;;10.87;;
75730;SDS011;64350;47.450;19.124;2022-10-16T16:59:30;20.43;;;11.00;;
75730;SDS011;64350;47.450;19.124;2022-10-16T17:01:58;20.42;;;11.52;;
75730;SDS011;64350;47.450;19.124;2022-10-16T17:04:24;24.85;;;11.57;;
75730;SDS011;64350;47.450;19.124;2022-10-16T17:06:50;21.12;;;11.38;;
75730;SDS011;64350;47.450;19.124;2022-10-16T17:09:18;20.60;;;11.43;;
75730;SDS011;64350;47.450;19.124;2022-10-16T17:11:43;22.92;;;10.88;;
75730;SDS011;64350;47.450;19.124;2022-10-16T17:14:10;21.83;;;11.20;;
75730;SDS011;64350;47.450;19.124;2022-10-16T17:16:37;20.08;;;11.20;;
75730;SDS011;64350;47.450;19.124;2022-10-16T17:19:05;21.15;;;11.60;;
75730;SDS011;64350;47.450;19.124;2022-10-16T17:21:32;20.40;;;12.52;;
75730;SDS011;64350;47.450;19.124;2022-10-16T17:23:58;21.42;;;12.37;;
75730;SDS011;64350;47.450;19.124;2022-10-16T17:26:24;21.60;;;11.90;;
75730;SDS011;64350;47.450;19.124;2022-10-16T17:28:50;27.80;;;12.45;;
75730;SDS011;64350;47.450;19.124;2022-10-16T17:31:18;20.83;;;11.60;;
75730;SDS011;64350;47.450;19.124;2022-10-16T17:33:46;20.07;;;12.17;;
75730;SDS011;64350;47.450;19.124;2022-10-16T17:36:11;22.98;;;11.88;;
75730;SDS011;64350;47.450;19.124;2022-10-16T17:38:38;22.13;;;12.65;;
75730;SDS011;64350;47.450;19.124;2022-10-16T17:41:21;24.03;;;12.17;;
75730;SDS011;64350;47.450;19.124;2022-10-16T17:43:48;20.45;;;12.70;;
75730;SDS011;64350;47.450;19.124;2022-10-16T17:46:14;23.30;;;12.50;;
75730;SDS011;64350;47.450;19.124;2022-10-16T17:48:41;24.75;;;13.02;;
75730;SDS011;64350;47.450;19.124;2022-10-16T17:51:09;22.58;;;13.13;;
75730;SDS011;64350;47.450;19.124;2022-10-16T17:53:36;24.20;;;12.90;;
75730;SDS011;64350;47.450;19.124;2022-10-16T17:56:03;23.85;;;13.15;;
75730;SDS011;64350;47.450;19.124;2022-10-16T17:58:32;23.33;;;13.25;;
75730;SDS011;64350;47.450;19.124;2022-10-16T18:00:58;25.20;;;13.40;;
75730;SDS011;64350;47.450;19.124;2022-10-16T18:03:23;22.23;;;14.02;;
75730;SDS011;64350;47.450;19.124;2022-10-16T18:05:51;20.93;;;12.10;;
75730;SDS011;64350;47.450;19.124;2022-10-16T18:08:17;22.45;;;13.65;;
75730;SDS011;64350;47.450;19.124;2022-10-16T18:10:45;25.90;;;12.80;;
75730;SDS011;64350;47.450;19.124;2022-10-16T18:13:12;24.27;;;13.10;;
75730;SDS011;64350;47.450;19.124;2022-10-16T18:15:38;22.60;;;13.07;;
75730;SDS011;64350;47.450;19.124;2022-10-16T18:18:03;21.17;;;12.30;;
75730;SDS011;64350;47.450;19.124;2022-10-16T18:20:28;25.97;;;13.63;;
75730;SDS011;64350;47.450;19.124;2022-10-16T18:22:54;21.80;;;12.93;;
75730;SDS011;64350;47.450;19.124;2022-10-16T18:25:19;24.70;;;13.40;;
75730;SDS011;64350;47.450;19.124;2022-10-16T18:27:44;22.37;;;13.40;;
75730;SDS011;64350;47.450;19.124;2022-10-16T18:30:10;24.83;;;13.53;;
75730;SDS011;64350;47.450;19.124;2022-10-16T18:32:35;22.65;;;13.80;;
75730;SDS011;64350;47.450;19.124;2022-10-16T18:35:01;30.00;;;14.30;;
75730;SDS011;64350;47.450;19.124;2022-10-16T18:37:26;24.67;;;14.13;;
75730;SDS011;64350;47.450;19.124;2022-10-16T18:39:52;27.80;;;13.73;;
75730;SDS011;64350;47.450;19.124;2022-10-16T18:42:17;26.40;;;13.95;;
75730;SDS011;64350;47.450;19.124;2022-10-16T18:44:43;25.20;;;14.13;;
75730;SDS011;64350;47.450;19.124;2022-10-16T18:47:08;21.73;;;13.67;;
75730;SDS011;64350;47.450;19.124;2022-10-16T18:49:34;22.17;;;13.93;;
75730;SDS011;64350;47.450;19.124;2022-10-16T18:51:59;24.55;;;13.05;;
75730;SDS011;64350;47.450;19.124;2022-10-16T18:54:27;23.48;;;13.95;;
75730;SDS011;64350;47.450;19.124;2022-10-16T18:56:53;23.12;;;12.90;;
75730;SDS011;64350;47.450;19.124;2022-10-16T18:59:19;22.17;;;12.87;;
75730;SDS011;64350;47.450;19.124;2022-10-16T19:01:44;20.73;;;12.23;;
75730;SDS011;64350;47.450;19.124;2022-10-16T19:04:12;25.60;;;12.57;;
75730;SDS011;64350;47.450;19.124;2022-10-16T19:06:41;25.95;;;13.85;;
75730;SDS011;64350;47.450;19.124;2022-10-16T19:09:09;26.23;;;13.20;;
75730;SDS011;64350;47.450;19.124;2022-10-16T19:11:35;22.83;;;13.82;;
75730;SDS011;64350;47.450;19.124;2022-10-16T19:14:01;24.13;;;12.63;;
75730;SDS011;64350;47.450;19.124;2022-10-16T19:16:30;21.05;;;14.00;;
75730;SDS011;64350;47.450;19.124;2022-10-16T19:18:58;23.45;;;12.88;;
75730;SDS011;64350;47.450;19.124;2022-10-16T19:21:25;25.50;;;13.13;;
75730;SDS011;64350;47.450;19.124;2022-10-16T19:23:55;23.93;;;13.43;;
75730;SDS011;64350;47.450;19.124;2022-10-16T19:26:22;23.33;;;12.73;;
75730;SDS011;64350;47.450;19.124;2022-10-16T19:28:48;23.80;;;13.73;;
75730;SDS011;64350;47.450;19.124;2022-10-16T19:31:15;22.40;;;13.52;;
75730;SDS011;64350;47.450;19.124;2022-10-16T19:33:43;23.70;;;12.98;;
75730;SDS011;64350;47.450;19.124;2022-10-16T19:36:15;21.47;;;12.77;;
75730;SDS011;64350;47.450;19.124;2022-10-16T19:38:41;22.98;;;12.93;;
75730;SDS011;64350;47.450;19.124;2022-10-16T19:41:08;21.60;;;11.90;;
75730;SDS011;64350;47.450;19.124;2022-10-16T19:43:35;21.53;;;11.27;;
75730;SDS011;64350;47.450;19.124;2022-10-16T19:46:02;24.75;;;13.27;;
75730;SDS011;64350;47.450;19.124;2022-10-16T19:48:31;21.17;;;12.63;;
75730;SDS011;64350;47.450;19.124;2022-10-16T19:50:57;19.42;;;11.82;;
75730;SDS011;64350;47.450;19.124;2022-10-16T19:53:22;23.40;;;12.87;;
75730;SDS011;64350;47.450;19.124;2022-10-16T19:55:48;21.52;;;11.95;;
75730;SDS011;64350;47.450;19.124;2022-10-16T19:58:13;26.83;;;12.43;;
75730;SDS011;64350;47.450;19.124;2022-10-16T20:00:42;24.57;;;12.73;;
75730;SDS011;64350;47.450;19.124;2022-10-16T20:03:07;22.90;;;12.43;;
75730;SDS011;64350;47.450;19.124;2022-10-16T20:05:33;23.27;;;12.88;;
75730;SDS011;64350;47.450;19.124;2022-10-16T20:07:58;22.67;;;12.80;;
75730;SDS011;64350;47.450;19.124;2022-10-16T20:10:27;21.13;;;12.30;;
75730;SDS011;64350;47.450;19.124;2022-10-16T20:12:52;24.35;;;13.32;;
75730;SDS011;64350;47.450;19.124;2022-10-16T20:15:17;23.90;;;14.23;;
75730;SDS011;64350;47.450;19.124;2022-10-16T20:17:43;26.03;;;12.97;;
75730;SDS011;64350;47.450;19.124;2022-10-16T20:20:08;22.50;;;12.45;;
75730;SDS011;64350;47.450;19.124;2022-10-16T20:22:34;22.33;;;12.13;;
75730;SDS011;64350;47.450;19.124;2022-10-16T20:25:00;21.57;;;12.77;;
75730;SDS011;64350;47.450;19.124;2022-10-16T20:27:25;21.12;;;11.88;;
75730;SDS011;64350;47.450;19.124;2022-10-16T20:29:53;22.17;;;12.53;;
75730;SDS011;64350;47.450;19.124;2022-10-16T20:32:19;23.60;;;12.48;;
75730;SDS011;64350;47.450;19.124;2022-10-16T20:34:44;22.35;;;12.75;;
75730;SDS011;64350;47.450;19.124;2022-10-16T20:37:13;21.65;;;12.73;;
